createdAt,value
2018-09-09T00:00:47.231Z,80.00
2018-09-09T00:03:21.584Z,80.90
2018-09-09T00:05:55.859Z,79.60
2018-09-09T00:08:30.132Z,80.40
2018-09-09T00:11:04.487Z,80.70
2018-09-09T00:13:38.875Z,80.90
2018-09-09T00:16:13.160Z,81.60
2018-09-09T00:18:47.715Z,82.30
2018-09-09T00:21:22.097Z,82.50
2018-09-09T00:23:56.413Z,84.10
2018-09-09T00:26:30.764Z,83.30
2018-09-09T00:29:06.020Z,83.30
2018-09-09T00:31:40.179Z,83.80
2018-09-09T00:34:14.400Z,85.00
2018-09-09T00:36:48.808Z,84.00
2018-09-09T00:39:23.027Z,84.00
2018-09-09T00:41:57.222Z,84.50
2018-09-09T00:44:31.516Z,84.70
2018-09-09T00:47:05.968Z,85.00
2018-09-09T00:49:45.520Z,84.70
2018-09-09T00:52:25.231Z,84.20
2018-09-09T00:54:59.520Z,84.20
2018-09-09T00:57:33.836Z,84.30
2018-09-09T01:00:08.060Z,85.10
2018-09-09T01:02:42.273Z,84.10
2018-09-09T01:05:16.604Z,83.20
2018-09-09T01:07:51.077Z,84.40
2018-09-09T01:10:25.307Z,83.20
2018-09-09T01:12:59.615Z,83.50
2018-09-09T01:15:34.092Z,84.20
2018-09-09T01:18:08.248Z,84.60
2018-09-09T01:20:42.479Z,83.50
2018-09-09T01:23:16.694Z,83.50
2018-09-09T01:25:50.888Z,82.10
2018-09-09T01:28:25.288Z,84.20
2018-09-09T01:30:59.588Z,84.10
2018-09-09T01:33:33.823Z,82.50
2018-09-09T01:36:08.260Z,84.60
2018-09-09T01:38:43.512Z,83.50
2018-09-09T01:41:17.840Z,84.80
2018-09-09T01:43:52.180Z,85.50
2018-09-09T01:46:26.536Z,85.40
2018-09-09T01:49:00.805Z,85.70
2018-09-09T01:51:35.120Z,85.80
2018-09-09T01:54:09.337Z,84.20
2018-09-09T01:56:43.824Z,85.00
2018-09-09T01:59:18.235Z,85.00
2018-09-09T02:01:52.591Z,85.40
2018-09-09T02:04:26.731Z,85.60
2018-09-09T02:07:00.922Z,85.60
2018-09-09T02:09:35.177Z,86.00
2018-09-09T02:12:09.484Z,85.10
2018-09-09T02:14:43.811Z,85.10
2018-09-09T02:17:18.175Z,85.30
2018-09-09T02:19:52.548Z,85.70
2018-09-09T02:22:26.867Z,84.60
2018-09-09T02:25:01.227Z,85.30
2018-09-09T02:27:35.496Z,86.00
2018-09-09T02:30:09.825Z,85.70
2018-09-09T02:32:44.056Z,86.30
2018-09-09T02:35:18.344Z,86.30
2018-09-09T02:37:52.751Z,86.60
2018-09-09T02:40:27.012Z,86.10
2018-09-09T02:43:01.267Z,86.60
2018-09-09T02:45:35.701Z,86.70
2018-09-09T02:48:10.478Z,86.60
2018-09-09T02:50:44.773Z,86.60
2018-09-09T02:53:19.068Z,86.60
2018-09-09T02:55:53.407Z,86.80
2018-09-09T02:58:27.704Z,86.60
2018-09-09T03:01:01.917Z,86.50
2018-09-09T03:03:36.268Z,86.50
2018-09-09T03:06:10.614Z,86.60
2018-09-09T03:08:44.876Z,86.60
2018-09-09T03:11:19.280Z,86.90
2018-09-09T03:13:53.544Z,86.10
2018-09-09T03:16:27.848Z,85.70
2018-09-09T03:19:02.165Z,85.80
2018-09-09T03:21:36.466Z,86.90
2018-09-09T03:24:10.787Z,85.90
2018-09-09T03:26:45.037Z,85.50
2018-09-09T03:29:19.361Z,85.90
2018-09-09T03:31:53.712Z,85.40
2018-09-09T03:34:28.016Z,85.90
2018-09-09T03:37:02.379Z,86.10
2018-09-09T03:39:36.956Z,84.90
2018-09-09T03:42:11.200Z,85.30
2018-09-09T03:44:45.516Z,85.90
2018-09-09T03:47:19.856Z,86.00
2018-09-09T03:49:54.280Z,85.80
2018-09-09T03:52:28.655Z,85.70
2018-09-09T03:55:02.968Z,86.30
2018-09-09T03:57:37.240Z,86.50
2018-09-09T04:00:11.939Z,86.40
2018-09-09T04:02:46.313Z,86.00
2018-09-09T04:05:20.684Z,85.70
2018-09-09T04:07:54.976Z,85.60
2018-09-09T04:10:29.482Z,85.70
2018-09-09T04:13:03.635Z,85.40
2018-09-09T04:15:38.052Z,85.20
2018-09-09T04:18:12.324Z,84.80
2018-09-09T04:20:46.545Z,84.60
2018-09-09T04:23:20.756Z,84.20
2018-09-09T04:25:55.099Z,84.30
2018-09-09T04:28:29.312Z,84.20
2018-09-09T04:31:03.828Z,83.70
2018-09-09T04:33:38.038Z,83.90
2018-09-09T04:36:12.389Z,84.50
2018-09-09T04:38:46.730Z,84.10
2018-09-09T04:41:21.040Z,83.50
2018-09-09T04:43:55.424Z,84.10
2018-09-09T04:46:29.684Z,83.90
2018-09-09T04:49:03.792Z,84.20
2018-09-09T04:51:38.063Z,84.30
2018-09-09T04:54:12.369Z,84.10
2018-09-09T04:56:46.615Z,84.60
2018-09-09T04:59:21.028Z,84.50
2018-09-09T05:01:55.372Z,83.80
2018-09-09T05:04:29.672Z,84.50
2018-09-09T05:07:04.064Z,85.60
2018-09-09T05:09:38.364Z,85.70
2018-09-09T05:12:12.777Z,85.30
2018-09-09T05:14:47.099Z,85.50
2018-09-09T05:17:21.443Z,85.50
2018-09-09T05:19:55.722Z,86.00
2018-09-09T05:22:29.973Z,85.90
2018-09-09T05:25:04.352Z,86.10
2018-09-09T05:27:38.512Z,85.50
2018-09-09T05:30:12.796Z,85.80
2018-09-09T05:32:47.152Z,85.00
2018-09-09T05:35:21.588Z,85.70
2018-09-09T05:37:55.911Z,85.40
2018-09-09T05:40:30.135Z,84.00
2018-09-09T05:43:04.488Z,84.40
2018-09-09T05:45:38.805Z,84.30
2018-09-09T05:48:13.116Z,85.10
2018-09-09T05:50:47.520Z,84.90
2018-09-09T05:53:21.952Z,85.30
2018-09-09T05:55:56.219Z,85.10
2018-09-09T05:58:30.540Z,85.10
2018-09-09T06:01:04.835Z,85.40
2018-09-09T06:03:39.192Z,85.00
2018-09-09T06:06:13.468Z,85.10
2018-09-09T06:08:47.804Z,84.60
2018-09-09T06:11:22.080Z,84.60
2018-09-09T06:13:56.536Z,84.80
2018-09-09T06:16:30.887Z,84.70
2018-09-09T06:19:05.500Z,84.50
2018-09-09T06:21:39.732Z,84.30
2018-09-09T06:24:14.052Z,83.60
2018-09-09T06:26:48.360Z,83.70
2018-09-09T06:29:22.635Z,83.70
2018-09-09T06:31:57.044Z,83.60
2018-09-09T06:34:31.366Z,83.40
2018-09-09T06:37:05.716Z,82.30
2018-09-09T06:39:40.044Z,82.40
2018-09-09T06:42:14.445Z,82.10
2018-09-09T06:44:48.643Z,82.20
2018-09-09T06:47:22.973Z,82.00
2018-09-09T06:49:57.187Z,82.80
2018-09-09T06:52:31.492Z,81.60
2018-09-09T06:55:06.119Z,81.40
2018-09-09T06:57:40.792Z,81.10
2018-09-09T07:00:15.123Z,81.00
2018-09-09T07:02:49.484Z,81.10
2018-09-09T07:05:24.048Z,81.20
2018-09-09T07:07:58.440Z,80.90
2018-09-09T07:10:32.788Z,79.80
2018-09-09T07:13:07.156Z,79.80
2018-09-09T07:15:41.599Z,79.10
2018-09-09T07:18:15.876Z,80.00
2018-09-09T07:20:50.126Z,79.60
2018-09-09T07:23:24.788Z,79.50
2018-09-09T07:25:59.011Z,78.00
2018-09-09T07:28:33.310Z,76.90
2018-09-09T07:31:07.668Z,75.90
2018-09-09T07:33:41.840Z,73.90
2018-09-09T07:36:16.164Z,73.60
2018-09-09T07:38:50.420Z,73.20
2018-09-09T07:41:24.836Z,73.00
2018-09-09T07:43:59.888Z,72.70
2018-09-09T07:46:34.247Z,72.00
2018-09-09T07:49:08.548Z,72.40
2018-09-09T07:51:42.860Z,70.40
2018-09-09T07:54:17.141Z,71.60
2018-09-09T07:56:51.500Z,72.40
2018-09-09T07:59:25.791Z,72.90
2018-09-09T08:02:00.171Z,71.30
2018-09-09T08:04:34.596Z,73.00
2018-09-09T08:07:08.928Z,72.60
2018-09-09T08:09:43.264Z,72.80
2018-09-09T08:12:17.616Z,71.50
2018-09-09T08:14:51.847Z,72.30
2018-09-09T08:17:26.140Z,71.10
2018-09-09T08:20:00.448Z,70.70
2018-09-09T08:22:34.807Z,69.40
2018-09-09T08:25:09.092Z,70.30
2018-09-09T08:27:43.360Z,69.70
2018-09-09T08:30:17.673Z,69.90
2018-09-09T08:32:51.959Z,70.90
2018-09-09T08:35:26.516Z,69.60
2018-09-09T08:38:01.020Z,69.90
2018-09-09T08:40:35.300Z,69.00
2018-09-09T08:43:09.631Z,68.50
2018-09-09T08:45:43.944Z,69.00
2018-09-09T08:48:18.308Z,68.10
2018-09-09T08:50:52.685Z,67.90
2018-09-09T08:53:27.016Z,66.40
2018-09-09T08:56:01.384Z,66.20
2018-09-09T08:58:35.699Z,65.90
2018-09-09T09:01:09.976Z,66.30
2018-09-09T09:03:44.312Z,66.50
2018-09-09T09:06:18.624Z,65.00
2018-09-09T09:08:52.948Z,65.70
2018-09-09T09:11:27.231Z,64.90
2018-09-09T09:14:01.748Z,63.90
2018-09-09T09:16:35.984Z,63.50
2018-09-09T09:19:10.304Z,62.70
2018-09-09T09:21:44.624Z,62.90
2018-09-09T09:24:18.951Z,65.70
2018-09-09T09:26:53.099Z,63.50
2018-09-09T09:29:31.743Z,64.80
2018-09-09T09:32:06.124Z,66.00
2018-09-09T09:34:40.472Z,62.10
2018-09-09T09:37:14.687Z,64.80
2018-09-09T09:39:48.884Z,63.70
2018-09-09T09:42:23.828Z,63.00
2018-09-09T09:44:58.183Z,62.20
2018-09-09T09:47:32.412Z,61.30
2018-09-09T09:50:06.792Z,61.90
2018-09-09T09:52:41.180Z,62.80
2018-09-09T09:55:15.713Z,61.70
2018-09-09T09:57:49.946Z,61.90
2018-09-09T10:00:29.680Z,61.60
2018-09-09T10:03:04.509Z,60.50
2018-09-09T10:05:38.897Z,63.40
2018-09-09T10:08:13.352Z,63.00
2018-09-09T10:13:55.296Z,64.80
2018-09-09T10:16:29.623Z,65.40
2018-09-09T10:19:03.872Z,62.00
2018-09-09T10:21:38.096Z,64.20
2018-09-09T10:24:12.574Z,60.70
2018-09-09T10:26:46.875Z,61.00
2018-09-09T10:29:21.145Z,66.60
2018-09-09T10:31:55.524Z,62.50
2018-09-09T10:34:29.828Z,62.50
2018-09-09T10:37:04.193Z,64.10
2018-09-09T10:39:38.459Z,63.70
2018-09-09T10:42:12.784Z,60.30
2018-09-09T10:44:47.096Z,61.90
2018-09-09T10:47:21.407Z,59.60
2018-09-09T10:49:55.564Z,58.50
2018-09-09T10:52:30.000Z,57.50
2018-09-09T10:55:04.396Z,58.70
2018-09-09T10:57:38.676Z,57.90
2018-09-09T11:00:12.889Z,57.10
2018-09-09T11:02:47.196Z,56.10
2018-09-09T11:05:21.492Z,56.20
2018-09-09T11:07:55.795Z,58.20
2018-09-09T11:10:30.160Z,59.10
2018-09-09T11:13:04.415Z,54.90
2018-09-09T11:15:38.747Z,58.30
2018-09-09T11:18:13.084Z,54.40
2018-09-09T11:20:47.400Z,56.00
2018-09-09T11:23:21.743Z,55.40
2018-09-09T11:25:55.969Z,56.30
2018-09-09T11:28:30.256Z,55.20
2018-09-09T11:31:04.596Z,57.30
2018-09-09T11:33:38.872Z,57.20
2018-09-09T11:36:14.294Z,56.10
2018-09-09T11:38:48.632Z,57.20
2018-09-09T11:41:23.072Z,54.40
2018-09-09T11:43:57.432Z,53.00
2018-09-09T11:46:32.156Z,55.80
2018-09-09T11:49:06.445Z,56.30
2018-09-09T11:51:40.877Z,55.40
2018-09-09T11:54:15.292Z,56.10
2018-09-09T11:56:49.500Z,56.00
2018-09-09T11:59:23.828Z,54.50
2018-09-09T12:01:58.296Z,54.80
2018-09-09T12:04:32.640Z,56.60
2018-09-09T12:07:06.921Z,56.00
2018-09-09T12:09:41.283Z,53.60
2018-09-09T12:12:15.755Z,56.20
2018-09-09T12:14:50.020Z,54.30
2018-09-09T12:17:24.176Z,56.80
2018-09-09T12:19:58.536Z,55.60
2018-09-09T12:22:32.826Z,56.00
2018-09-09T12:25:07.100Z,56.30
2018-09-09T12:27:41.508Z,55.30
2018-09-09T12:30:15.804Z,56.60
2018-09-09T12:32:50.071Z,56.60
2018-09-09T12:35:24.393Z,56.40
2018-09-09T12:37:58.568Z,55.00
2018-09-09T12:40:32.966Z,57.40
2018-09-09T12:43:12.660Z,56.90
2018-09-09T12:45:52.404Z,55.80
2018-09-09T12:48:32.043Z,55.00
2018-09-09T12:51:06.338Z,57.50
2018-09-09T12:53:40.676Z,57.00
2018-09-09T12:56:15.072Z,56.40
2018-09-09T12:58:49.513Z,54.10
2018-09-09T13:01:23.879Z,55.70
2018-09-09T13:03:58.404Z,55.00
2018-09-09T13:06:32.820Z,55.00
2018-09-09T13:09:08.232Z,55.30
2018-09-09T13:11:42.542Z,55.20
2018-09-09T13:14:16.827Z,55.80
2018-09-09T13:16:51.120Z,54.90
2018-09-09T13:19:25.404Z,54.50
2018-09-09T13:21:59.556Z,54.90
2018-09-09T13:24:33.844Z,54.30
2018-09-09T13:27:08.203Z,54.00
2018-09-09T13:29:42.507Z,54.30
2018-09-09T13:32:16.804Z,52.70
2018-09-09T13:34:51.112Z,53.00
2018-09-09T13:37:25.483Z,53.40
2018-09-09T13:39:59.804Z,54.20
2018-09-09T13:42:34.168Z,53.30
2018-09-09T13:45:08.472Z,54.00
2018-09-09T13:47:42.939Z,54.00
2018-09-09T13:50:17.349Z,53.90
2018-09-09T13:52:51.700Z,54.60
2018-09-09T13:55:25.988Z,53.60
2018-09-09T13:58:00.268Z,53.90
2018-09-09T14:00:34.594Z,54.00
2018-09-09T14:03:08.854Z,54.40
2018-09-09T14:05:43.237Z,53.30
2018-09-09T14:08:17.533Z,54.50
2018-09-09T14:10:51.724Z,54.80
2018-09-09T14:13:26.055Z,55.00
2018-09-09T14:16:00.356Z,55.20
2018-09-09T14:18:34.648Z,54.10
2018-09-09T14:21:09.008Z,54.40
2018-09-09T14:23:43.356Z,53.60
2018-09-09T14:26:17.664Z,53.60
2018-09-09T14:28:52.083Z,54.00
2018-09-09T14:31:26.416Z,55.60
2018-09-09T14:34:00.675Z,55.80
2018-09-09T14:36:34.964Z,55.00
2018-09-09T14:39:09.920Z,55.80
2018-09-09T14:41:44.136Z,54.50
2018-09-09T14:44:18.420Z,54.20
2018-09-09T14:46:52.747Z,55.60
2018-09-09T14:49:27.228Z,55.90
2018-09-09T14:52:01.572Z,54.80
2018-09-09T14:54:35.852Z,54.70
2018-09-09T14:57:28.313Z,55.00
2018-09-09T15:00:03.747Z,55.40
2018-09-09T15:02:38.043Z,54.80
2018-09-09T15:05:12.272Z,55.50
2018-09-09T15:07:46.630Z,54.70
2018-09-09T15:10:21.016Z,54.00
2018-09-09T15:12:55.240Z,54.00
2018-09-09T15:15:29.533Z,55.00
2018-09-09T15:18:04.007Z,54.10
2018-09-09T15:20:38.292Z,54.00
2018-09-09T15:23:12.628Z,54.50
2018-09-09T15:25:46.948Z,54.20
2018-09-09T15:28:21.212Z,53.90
2018-09-09T15:30:55.532Z,54.70
2018-09-09T15:33:30.542Z,55.10
2018-09-09T15:36:04.812Z,54.80
2018-09-09T15:38:39.135Z,54.60
2018-09-09T15:41:13.300Z,54.80
2018-09-09T15:43:47.609Z,54.20
2018-09-09T15:46:21.814Z,53.70
2018-09-09T15:48:57.376Z,55.30
2018-09-09T15:51:32.276Z,55.00
2018-09-09T15:54:08.086Z,54.80
2018-09-09T15:56:42.276Z,54.90
2018-09-09T15:59:16.611Z,55.70
2018-09-09T16:01:51.040Z,55.50
2018-09-09T16:04:25.356Z,55.90
2018-09-09T16:06:59.728Z,55.40
2018-09-09T16:09:33.907Z,55.60
2018-09-09T16:12:08.180Z,55.30
2018-09-09T16:14:42.564Z,55.30
2018-09-09T16:17:16.872Z,55.40
2018-09-09T16:19:51.218Z,55.70
2018-09-09T16:22:25.588Z,55.10
2018-09-09T16:24:59.992Z,55.30
2018-09-09T16:27:34.239Z,55.70
2018-09-09T16:30:09.024Z,55.30
2018-09-09T16:32:43.324Z,55.60
2018-09-09T16:35:17.755Z,55.60
2018-09-09T16:37:52.012Z,56.10
2018-09-09T16:40:26.351Z,56.80
2018-09-09T16:43:00.696Z,57.60
2018-09-09T16:45:35.180Z,56.20
2018-09-09T16:48:09.499Z,56.50
2018-09-09T16:50:43.724Z,56.90
2018-09-09T16:53:18.057Z,56.60
2018-09-09T16:55:52.653Z,56.80
2018-09-09T16:58:27.489Z,56.80
2018-09-09T17:01:01.858Z,56.60
2018-09-09T17:03:36.439Z,56.80
2018-09-09T17:06:10.660Z,57.20
2018-09-09T17:08:44.972Z,57.60
2018-09-09T17:11:19.188Z,58.10
2018-09-09T17:13:54.205Z,57.80
2018-09-09T17:16:28.592Z,58.80
2018-09-09T17:19:03.060Z,58.20
2018-09-09T17:21:37.428Z,58.00
2018-09-09T17:24:11.654Z,58.00
2018-09-09T17:26:45.996Z,58.70
2018-09-09T17:29:20.347Z,58.40
2018-09-09T17:31:54.623Z,59.50
2018-09-09T17:34:28.852Z,58.80
2018-09-09T17:37:03.386Z,59.50
2018-09-09T17:39:37.647Z,59.00
2018-09-09T17:42:11.869Z,59.90
2018-09-09T17:44:46.059Z,60.00
2018-09-09T17:47:20.411Z,58.90
2018-09-09T17:49:54.860Z,59.20
2018-09-09T17:52:29.434Z,58.90
2018-09-09T17:55:03.988Z,60.30
2018-09-09T17:57:38.384Z,59.40
2018-09-09T18:00:13.448Z,60.50
2018-09-09T18:02:47.855Z,62.90
2018-09-09T18:05:22.156Z,60.00
2018-09-09T18:07:56.537Z,60.40
2018-09-09T18:10:30.820Z,61.00
2018-09-09T18:13:05.132Z,60.40
2018-09-09T18:15:39.368Z,60.30
2018-09-09T18:18:13.868Z,61.00
2018-09-09T18:20:48.216Z,60.60
2018-09-09T18:23:22.492Z,60.50
2018-09-09T18:25:56.840Z,60.70
2018-09-09T18:28:31.183Z,62.00
2018-09-09T18:31:05.409Z,61.30
2018-09-09T18:33:39.780Z,61.50
2018-09-09T18:36:13.968Z,61.60
2018-09-09T18:38:48.234Z,61.70
2018-09-09T18:41:22.648Z,62.20
2018-09-09T18:43:56.848Z,62.70
2018-09-09T18:46:31.161Z,63.10
2018-09-09T18:49:05.468Z,63.90
2018-09-09T18:51:39.835Z,64.00
2018-09-09T18:54:14.240Z,65.70
2018-09-09T18:56:48.517Z,65.00
2018-09-09T18:59:22.740Z,67.30
2018-09-09T19:01:57.016Z,66.50
2018-09-09T19:04:31.321Z,66.40
2018-09-09T19:07:05.751Z,66.60
2018-09-09T19:09:39.946Z,69.60
2018-09-09T19:12:14.176Z,71.40
2018-09-09T19:14:49.012Z,71.50
2018-09-09T19:17:23.384Z,71.40
2018-09-09T19:19:57.684Z,72.70
2018-09-09T19:22:32.047Z,70.60
2018-09-09T19:25:06.331Z,73.60
2018-09-09T19:27:40.607Z,73.70
2018-09-09T19:30:14.904Z,74.30
2018-09-09T19:32:49.064Z,74.20
2018-09-09T19:35:23.400Z,73.30
2018-09-09T19:37:57.712Z,73.80
2018-09-09T19:40:32.060Z,73.90
2018-09-09T19:43:06.357Z,74.30
2018-09-09T19:45:40.682Z,74.90
2018-09-09T19:48:14.956Z,74.10
2018-09-09T19:50:49.356Z,76.10
2018-09-09T19:53:23.902Z,75.50
2018-09-09T19:55:58.272Z,76.60
2018-09-09T19:58:32.547Z,76.10
2018-09-09T20:01:06.964Z,76.50
2018-09-09T20:15:39.115Z,76.80
2018-09-09T20:18:13.400Z,76.90
2018-09-09T20:20:47.723Z,77.00
2018-09-09T20:23:22.037Z,77.20
2018-09-09T20:25:56.468Z,77.70
2018-09-09T20:28:30.752Z,78.70
2018-09-09T20:31:05.290Z,78.80
2018-09-09T20:33:39.575Z,78.80
2018-09-09T20:36:13.925Z,79.00
2018-09-09T20:38:48.350Z,79.10
2018-09-09T20:41:22.583Z,78.60
2018-09-09T20:43:56.940Z,77.00
2018-09-09T20:46:31.121Z,76.70
2018-09-09T20:49:05.432Z,75.70
2018-09-09T20:51:39.719Z,75.60
2018-09-09T20:54:14.181Z,75.30
2018-09-09T20:56:48.528Z,75.60
2018-09-09T20:59:22.863Z,75.10
2018-09-09T21:01:57.128Z,74.90
2018-09-09T21:04:31.364Z,75.10
2018-09-09T21:07:05.932Z,75.50
2018-09-09T21:09:40.170Z,75.90
2018-09-09T21:12:14.271Z,75.60
2018-09-09T21:14:48.722Z,75.90
2018-09-09T21:17:23.228Z,76.00
2018-09-09T21:19:57.512Z,75.70
2018-09-09T21:22:32.640Z,75.40
2018-09-09T21:25:07.028Z,74.90
2018-09-09T21:27:41.347Z,73.90
2018-09-09T21:30:15.619Z,72.70
2018-09-09T21:32:49.902Z,73.40
2018-09-09T21:35:24.239Z,72.90
2018-09-09T21:37:58.624Z,73.30
2018-09-09T21:40:32.999Z,73.50
2018-09-09T21:43:07.259Z,74.80
2018-09-09T21:45:41.516Z,75.00
2018-09-09T21:48:15.796Z,75.30
2018-09-09T21:50:50.309Z,76.10
2018-09-09T21:53:24.544Z,76.70
2018-09-09T21:55:58.752Z,77.00
2018-09-09T21:58:33.051Z,77.40
2018-09-09T22:01:12.809Z,77.40
2018-09-09T22:03:47.083Z,77.60
2018-09-09T22:06:21.293Z,78.10
2018-09-09T22:08:56.348Z,78.30
2018-09-09T22:11:30.668Z,78.40
2018-09-09T22:14:05.097Z,76.80
2018-09-09T22:16:39.460Z,76.70
2018-09-09T22:19:13.807Z,77.10
2018-09-09T22:21:49.195Z,77.30
2018-09-09T22:24:23.460Z,77.00
2018-09-09T22:26:57.772Z,77.60
2018-09-09T22:29:32.073Z,77.50
2018-09-09T22:32:06.392Z,77.40
2018-09-09T22:34:40.576Z,77.80
2018-09-09T22:37:14.908Z,78.00
2018-09-09T22:39:49.079Z,77.70
2018-09-09T22:42:23.392Z,77.60
2018-09-09T22:44:57.752Z,77.60
2018-09-09T22:47:32.100Z,77.50
2018-09-09T22:50:06.572Z,78.50
2018-09-09T22:52:40.889Z,78.00
2018-09-09T22:55:15.176Z,78.00
2018-09-09T22:57:49.500Z,77.90
2018-09-09T23:00:23.841Z,78.00
2018-09-09T23:02:58.120Z,78.00
2018-09-09T23:05:32.512Z,78.10
2018-09-09T23:08:06.812Z,78.60
2018-09-09T23:10:41.713Z,78.90
2018-09-09T23:13:15.964Z,78.80
2018-09-09T23:15:50.272Z,78.40
2018-09-09T23:18:24.536Z,78.50
2018-09-09T23:20:58.872Z,78.20
2018-09-09T23:23:33.155Z,78.60
2018-09-09T23:26:07.532Z,78.30
2018-09-09T23:28:41.889Z,78.80
2018-09-09T23:31:16.192Z,78.90
2018-09-09T23:33:50.544Z,79.20
2018-09-09T23:36:24.737Z,79.00
2018-09-09T23:38:59.012Z,78.50
2018-09-09T23:41:33.334Z,78.30
2018-09-09T23:44:07.792Z,78.30
2018-09-09T23:46:42.208Z,78.50
2018-09-09T23:49:16.512Z,79.00
2018-09-09T23:51:51.000Z,78.70
2018-09-09T23:54:25.355Z,78.40
2018-09-09T23:56:59.744Z,79.10
2018-09-09T23:59:34.121Z,78.60
